createdAt,value
2023-04-26T00:05:27.273Z,99549.28
2023-04-26T00:15:32.466Z,99539.88
2023-04-26T00:25:40.262Z,99553.66
2023-04-26T00:35:41.895Z,99571.69
2023-04-26T00:45:43.739Z,99581.16
2023-04-26T00:56:02.667Z,99585.53
2023-04-26T01:06:04.829Z,99590.06
2023-04-26T01:16:08.406Z,99593.59
2023-04-26T01:26:10.998Z,99600.53
2023-04-26T01:36:13.035Z,99616.06
2023-04-26T01:46:14.779Z,99616.94
2023-04-26T01:56:20.128Z,99628.97
2023-04-26T02:06:21.912Z,99627.25
2023-04-26T02:16:25.777Z,99632.41
2023-04-26T02:26:27.514Z,99640.97
2023-04-26T02:36:30.035Z,99637.59
2023-04-26T02:46:33.669Z,99646.19
2023-04-26T02:56:37.330Z,99651.34
2023-04-26T03:06:39.118Z,99673.63
2023-04-26T03:16:42.867Z,99689.03
2023-04-26T03:26:46.719Z,99697.59
2023-04-26T03:36:54.579Z,99708.72
2023-04-26T03:46:59.650Z,99719.84
2023-04-26T03:57:01.392Z,99721.59
2023-04-26T04:07:04.077Z,99736.16
2023-04-26T04:17:05.802Z,99749.84
2023-04-26T04:27:13.765Z,99746.41
2023-04-26T04:37:15.580Z,99778.97
2023-04-26T04:47:18.467Z,99783.22
2023-04-26T04:57:22.210Z,99791.81
2023-04-26T05:07:24.612Z,99811.50
2023-04-26T05:17:28.766Z,99818.38
2023-04-26T05:27:31.919Z,99824.34
2023-04-26T05:37:34.586Z,99833.75
2023-04-26T05:47:48.186Z,99823.44
2023-04-26T05:57:50.198Z,99841.41
2023-04-26T06:07:52.248Z,99845.59
2023-04-26T06:17:53.937Z,99855.03
2023-04-26T06:27:55.801Z,99870.31
2023-04-26T06:37:58.452Z,99858.09
2023-04-26T06:48:02.193Z,99866.53
2023-04-26T06:58:04.084Z,99868.81
2023-04-26T07:08:06.973Z,99875.97
2023-04-26T07:18:10.892Z,99885.13
2023-04-26T07:28:12.820Z,99885.81
2023-04-26T07:38:37.888Z,99896.84
2023-04-26T07:48:39.628Z,99919.38
2023-04-26T07:58:41.617Z,99928.00
2023-04-26T08:08:45.707Z,99936.69
2023-04-26T08:18:48.294Z,99935.41
2023-04-26T08:28:50.057Z,99942.72
2023-04-26T08:38:52.155Z,99943.88
2023-04-26T08:49:02.936Z,99959.72
2023-04-26T08:59:09.414Z,99958.50
2023-04-26T09:09:13.876Z,99953.34
2023-04-26T09:19:18.344Z,99953.78
2023-04-26T09:29:21.020Z,99950.44
2023-04-26T09:39:37.775Z,99953.28
2023-04-26T09:49:51.459Z,99966.03
2023-04-26T09:59:55.781Z,99959.75
2023-04-26T10:09:58.777Z,99952.00
2023-04-26T10:20:01.728Z,99966.25
2023-04-26T10:30:08.259Z,99958.31
2023-04-26T10:40:36.569Z,99955.34
2023-04-26T10:51:13.856Z,99955.88
2023-04-26T11:01:17.580Z,99955.53
2023-04-26T11:11:19.788Z,99944.47
2023-04-26T11:21:23.518Z,99953.41
2023-04-26T11:31:25.938Z,99951.69
2023-04-26T11:41:30.955Z,99970.72
2023-04-26T11:51:40.272Z,99956.53
2023-04-26T12:01:51.521Z,99965.69
2023-04-26T12:12:02.151Z,99983.75
2023-04-26T12:22:07.146Z,99965.13
2023-04-26T12:32:09.878Z,99977.72
2023-04-26T12:42:11.694Z,99978.03
2023-04-26T12:52:13.286Z,99971.56
2023-04-26T13:02:15.490Z,99984.88
2023-04-26T13:12:18.288Z,99980.91
2023-04-26T13:22:20.740Z,99996.47
2023-04-26T13:32:22.438Z,99986.34
2023-04-26T13:42:24.489Z,100000.97
2023-04-26T13:52:28.093Z,100008.09
2023-04-26T14:02:31.577Z,100032.59
2023-04-26T14:12:37.420Z,100035.53
2023-04-26T14:22:46.655Z,100027.88
2023-04-26T14:32:51.733Z,100042.31
2023-04-26T14:42:53.667Z,100041.97
2023-04-26T14:52:55.978Z,100054.81
2023-04-26T15:03:11.047Z,100031.00
2023-04-26T15:13:14.075Z,100059.72
2023-04-26T15:23:19.240Z,100059.59
2023-04-26T15:33:23.282Z,100067.41
2023-04-26T15:43:25.146Z,100071.72
2023-04-26T15:53:27.074Z,100060.88
2023-04-26T16:03:30.934Z,100072.22
2023-04-26T16:13:33.685Z,100067.66
2023-04-26T16:23:37.144Z,100082.47
2023-04-26T16:33:51.451Z,100103.44
2023-04-26T16:43:55.426Z,100098.16
2023-04-26T16:54:27.639Z,100113.09
2023-04-26T17:04:29.824Z,100124.38
2023-04-26T17:14:32.904Z,100130.31
2023-04-26T17:24:36.398Z,100134.13
2023-04-26T17:34:39.940Z,100143.13
2023-04-26T17:44:44.306Z,100148.63
2023-04-26T17:54:50.333Z,100174.56
2023-04-26T18:05:00.422Z,100182.38
2023-04-26T18:15:02.684Z,100190.19
2023-04-26T18:25:06.634Z,100198.91
2023-04-26T18:35:12.353Z,100205.06
2023-04-26T18:45:15.942Z,100225.72
2023-04-26T18:55:23.524Z,100237.00
2023-04-26T19:05:29.525Z,100243.00
2023-04-26T19:15:31.962Z,100237.84
2023-04-26T19:25:38.061Z,100258.34
2023-04-26T19:35:41.382Z,100252.34
2023-04-26T19:57:13.324Z,100259.97
2023-04-26T20:07:22.989Z,100260.69
2023-04-26T20:17:28.150Z,100277.56
2023-04-26T20:27:43.639Z,100280.78
2023-04-26T20:37:48.256Z,100283.94
2023-04-26T20:47:50.230Z,100301.63
2023-04-26T20:57:55.251Z,100302.31
2023-04-26T21:07:56.932Z,100307.97
2023-04-26T21:17:58.617Z,100316.03
2023-04-26T21:28:18.053Z,100328.72
2023-04-26T21:38:20.038Z,100331.94
2023-04-26T21:48:22.891Z,100346.88
2023-04-26T21:58:24.676Z,100344.00
2023-04-26T22:08:26.326Z,100348.97
2023-04-26T22:18:29.961Z,100352.69
2023-04-26T22:28:31.689Z,100358.59
2023-04-26T22:38:33.452Z,100375.41
2023-04-26T22:48:35.313Z,100388.34
2023-04-26T22:58:38.180Z,100387.25
2023-04-26T23:08:58.942Z,100388.31
2023-04-26T23:19:04.593Z,100396.44
2023-04-26T23:29:06.327Z,100409.03
2023-04-26T23:39:09.410Z,100416.56
2023-04-26T23:49:11.279Z,100409.16
2023-04-26T23:59:13.578Z,100411.94
